Time;durP1;ratioP1;P1;durP2;ratioP2;P2;SDS_P1;SDS_P2;PMS_P1;PMS_P2;Temp;Humidity;BMP_temperature;BMP_pressure;BME280_temperature;BME280_humidity;BME280_pressure;Samples;Min_cycle;Max_cycle;Signal;HPM_P1;HPM_P2
2023/07/01 00:00:16;;;;;;;5.55;5.05;;;;;;;;;;6288375;28;20056;-80
2023/07/01 00:03:30;;;;;;;6.40;5.25;;;;;;;;;;6301077;28;20245;-81
2023/07/01 00:06:32;;;;;;;4.68;4.28;;;;;;;;;;6294697;28;20100;-81
2023/07/01 00:09:33;;;;;;;5.70;5.20;;;;;;;;;;6301416;28;21056;-80
2023/07/01 00:12:35;;;;;;;5.43;4.95;;;;;;;;;;6294355;28;20107;-80
2023/07/01 00:15:37;;;;;;;5.38;4.93;;;;;;;;;;6304175;28;20127;-80
2023/07/01 00:18:43;;;;;;;6.25;5.65;;;;;;;;;;6309653;28;20047;-79
2023/07/01 00:21:44;;;;;;;6.32;5.45;;;;;;;;;;6310005;28;20084;-80
2023/07/01 00:24:46;;;;;;;6.28;5.50;;;;;;;;;;6302117;28;20071;-79
2023/07/01 00:27:48;;;;;;;6.68;5.95;;;;;;;;;;6307353;28;20058;-80
2023/07/01 00:30:49;;;;;;;6.32;5.72;;;;;;;;;;6300826;28;20090;-80
2023/07/01 00:33:51;;;;;;;6.25;5.57;;;;;;;;;;6282260;28;20045;-79
2023/07/01 00:36:53;;;;;;;7.75;5.68;;;;;;;;;;6279645;28;20036;-80
2023/07/01 00:39:54;;;;;;;6.28;5.68;;;;;;;;;;6303010;28;20044;-80
2023/07/01 00:42:57;;;;;;;7.03;5.67;;;;;;;;;;6313437;28;20051;-80
2023/07/01 00:45:59;;;;;;;6.75;6.05;;;;;;;;;;6322038;28;20040;-80
2023/07/01 00:49:01;;;;;;;6.13;5.60;;;;;;;;;;6307569;28;20040;-82
2023/07/01 00:52:03;;;;;;;7.00;5.72;;;;;;;;;;6307501;28;20040;-79
2023/07/01 00:55:09;;;;;;;6.10;5.50;;;;;;;;;;6305275;28;20058;-80
2023/07/01 00:58:11;;;;;;;5.88;5.35;;;;;;;;;;6299062;27;20040;-80
2023/07/01 01:01:18;;;;;;;5.47;4.97;;;;;;;;;;6307734;28;20041;-80
2023/07/01 01:04:44;;;;;;;6.07;5.50;;;;;;;;;;6306191;28;20409;-80
2023/07/01 01:07:54;;;;;;;6.32;5.72;;;;;;;;;;6302901;28;20040;-80
2023/07/01 01:11:00;;;;;;;6.38;5.72;;;;;;;;;;6318653;28;20052;-79
2023/07/01 01:14:07;;;;;;;6.40;5.80;;;;;;;;;;6312006;28;20044;-81
2023/07/01 01:17:13;;;;;;;6.90;6.20;;;;;;;;;;6275721;28;20044;-79
2023/07/01 01:20:20;;;;;;;7.38;6.70;;;;;;;;;;6308413;28;20111;-80
2023/07/01 01:23:27;;;;;;;6.47;5.38;;;;;;;;;;6274210;28;20059;-80
2023/07/01 01:26:37;;;;;;;6.30;5.70;;;;;;;;;;6298087;28;20051;-80
2023/07/01 01:29:39;;;;;;;6.15;5.55;;;;;;;;;;6312847;28;20075;-80
2023/07/01 01:32:40;;;;;;;6.28;5.68;;;;;;;;;;6300240;28;20094;-80
2023/07/01 01:35:43;;;;;;;6.30;5.70;;;;;;;;;;6302926;28;20409;-80
2023/07/01 01:38:45;;;;;;;8.73;5.93;;;;;;;;;;6305097;28;20090;-79
2023/07/01 01:41:57;;;;;;;6.65;6.00;;;;;;;;;;6307916;28;20044;-80
2023/07/01 01:45:00;;;;;;;6.28;5.78;;;;;;;;;;6305487;28;20067;-80
2023/07/01 01:48:05;;;;;;;7.45;6.15;;;;;;;;;;6307860;28;20048;-80
2023/07/01 01:51:08;;;;;;;6.68;6.13;;;;;;;;;;6334439;27;20704;-80
2023/07/01 01:54:11;;;;;;;7.25;6.53;;;;;;;;;;6276210;28;20041;-80
2023/07/01 01:57:15;;;;;;;6.50;5.90;;;;;;;;;;6297337;28;20047;-80
2023/07/01 02:00:17;;;;;;;6.53;5.80;;;;;;;;;;6302897;27;20040;-80
2023/07/01 02:03:19;;;;;;;7.25;6.13;;;;;;;;;;6305069;28;20036;-80
2023/07/01 02:06:21;;;;;;;8.77;6.03;;;;;;;;;;6301956;28;20520;-80
2023/07/01 02:09:22;;;;;;;7.82;6.63;;;;;;;;;;6307844;28;20044;-80
2023/07/01 02:12:26;;;;;;;10.15;6.72;;;;;;;;;;6299090;28;20044;-80
2023/07/01 02:15:27;;;;;;;6.75;6.05;;;;;;;;;;6289477;28;20055;-79
2023/07/01 02:18:32;;;;;;;7.30;6.60;;;;;;;;;;6306651;28;20544;-80
2023/07/01 02:21:34;;;;;;;7.20;6.57;;;;;;;;;;6307014;28;20529;-80
2023/07/01 02:24:35;;;;;;;7.15;6.45;;;;;;;;;;6295813;28;20159;-80
2023/07/01 02:27:37;;;;;;;6.70;6.05;;;;;;;;;;6330281;27;20056;-80
2023/07/01 02:30:39;;;;;;;8.73;6.43;;;;;;;;;;6304917;28;20094;-80
2023/07/01 02:33:41;;;;;;;8.00;7.20;;;;;;;;;;6334573;27;20620;-80
2023/07/01 02:36:43;;;;;;;8.73;7.68;;;;;;;;;;6274593;28;20044;-79
2023/07/01 02:39:46;;;;;;;8.10;7.30;;;;;;;;;;6302630;28;20064;-79
2023/07/01 02:42:47;;;;;;;7.75;6.82;;;;;;;;;;6309816;28;20054;-79
2023/07/01 02:45:49;;;;;;;7.72;7.03;;;;;;;;;;6318118;28;20044;-79
2023/07/01 02:48:51;;;;;;;7.20;6.60;;;;;;;;;;6309414;28;20154;-80
2023/07/01 02:51:52;;;;;;;7.07;6.38;;;;;;;;;;6319640;28;20048;-79
2023/07/01 02:54:54;;;;;;;8.38;6.78;;;;;;;;;;6316861;28;20039;-80
2023/07/01 02:57:56;;;;;;;8.93;7.10;;;;;;;;;;6306657;28;20044;-79
2023/07/01 03:00:58;;;;;;;7.88;7.07;;;;;;;;;;6309016;28;20413;-80
2023/07/01 03:03:59;;;;;;;7.75;6.32;;;;;;;;;;6307338;28;20051;-79
2023/07/01 03:07:20;;;;;;;7.28;6.57;;;;;;;;;;6306867;28;20040;-80
2023/07/01 03:10:21;;;;;;;7.22;6.50;;;;;;;;;;6303731;28;20498;-80
2023/07/01 03:13:23;;;;;;;8.25;7.25;;;;;;;;;;6307941;28;20128;-80
2023/07/01 03:16:25;;;;;;;7.80;7.10;;;;;;;;;;6302337;27;20086;-80
2023/07/01 03:19:27;;;;;;;8.30;7.53;;;;;;;;;;6305715;28;20494;-80
2023/07/01 03:22:28;;;;;;;7.82;7.13;;;;;;;;;;6317907;28;20048;-80
2023/07/01 03:25:30;;;;;;;7.68;6.90;;;;;;;;;;6311949;28;20491;-80
2023/07/01 03:28:32;;;;;;;8.63;7.72;;;;;;;;;;6309943;28;20040;-80
2023/07/01 03:31:34;;;;;;;7.57;6.90;;;;;;;;;;6301575;28;20048;-79
2023/07/01 03:34:37;;;;;;;8.07;7.18;;;;;;;;;;6306668;28;20044;-78
2023/07/01 03:37:41;;;;;;;8.52;6.95;;;;;;;;;;6301988;28;20524;-79
2023/07/01 03:40:43;;;;;;;7.82;7.03;;;;;;;;;;6301285;28;20097;-79
2023/07/01 03:43:45;;;;;;;7.10;6.40;;;;;;;;;;6303491;28;20498;-79
2023/07/01 03:46:47;;;;;;;8.20;7.47;;;;;;;;;;6306480;28;20190;-79
2023/07/01 03:49:49;;;;;;;8.00;7.20;;;;;;;;;;6309525;28;20505;-79
2023/07/01 03:52:51;;;;;;;7.22;6.63;;;;;;;;;;6306573;28;20048;-79
2023/07/01 03:55:52;;;;;;;7.78;7.07;;;;;;;;;;6296355;28;20047;-79
2023/07/01 03:58:54;;;;;;;7.68;6.78;;;;;;;;;;6308464;28;20040;-80
2023/07/01 04:01:56;;;;;;;7.35;6.65;;;;;;;;;;6307372;28;20071;-79
2023/07/01 04:05:09;;;;;;;7.32;6.47;;;;;;;;;;6297643;28;20071;-80
2023/07/01 04:08:11;;;;;;;;;;;;;;;;;;6302917;28;20056;-79
2023/07/01 04:11:12;;;;;;;8.00;6.72;;;;;;;;;;6300439;28;19951;-79
2023/07/01 04:14:15;;;;;;;10.93;7.20;;;;;;;;;;6307418;28;20050;-80
2023/07/01 04:17:16;;;;;;;7.33;6.70;;;;;;;;;;6305240;28;20085;-79
2023/07/01 04:20:21;;;;;;;7.28;6.55;;;;;;;;;;6305791;28;20040;-79
2023/07/01 04:23:23;;;;;;;7.93;6.60;;;;;;;;;;6316201;28;20043;-79
2023/07/01 04:26:27;;;;;;;7.20;6.50;;;;;;;;;;6304410;28;20047;-79
2023/07/01 04:29:29;;;;;;;7.22;6.53;;;;;;;;;;6307115;28;20036;-80
2023/07/01 04:32:30;;;;;;;7.78;6.97;;;;;;;;;;6303472;28;20760;-78
2023/07/01 04:35:32;;;;;;;10.18;7.88;;;;;;;;;;6300277;28;20464;-79
2023/07/01 04:38:34;;;;;;;8.00;7.20;;;;;;;;;;6305738;28;20047;-79
2023/07/01 04:41:35;;;;;;;7.20;6.47;;;;;;;;;;6305530;28;20044;-79
2023/07/01 04:44:37;;;;;;;8.00;6.75;;;;;;;;;;6307543;28;20493;-80
2023/07/01 04:47:39;;;;;;;7.18;6.47;;;;;;;;;;6313177;28;20036;-80
2023/07/01 04:50:41;;;;;;;6.78;6.15;;;;;;;;;;6324240;28;20063;-79
2023/07/01 04:53:42;;;;;;;5.88;5.38;;;;;;;;;;6309139;28;20520;-80
2023/07/01 04:56:44;;;;;;;6.72;6.03;;;;;;;;;;6311261;28;20497;-80
2023/07/01 04:59:46;;;;;;;6.70;5.80;;;;;;;;;;6310227;27;20060;-79
2023/07/01 05:02:47;;;;;;;7.10;6.40;;;;;;;;;;6282474;28;20045;-79
2023/07/01 05:05:49;;;;;;;7.50;6.78;;;;;;;;;;6289187;28;20048;-79
2023/07/01 05:08:52;;;;;;;6.55;5.97;;;;;;;;;;6301245;28;20047;-79
2023/07/01 05:11:53;;;;;;;7.57;6.07;;;;;;;;;;6306233;28;20053;-79
2023/07/01 05:14:55;;;;;;;7.13;6.20;;;;;;;;;;6306493;27;20071;-78
2023/07/01 05:17:57;;;;;;;6.82;5.97;;;;;;;;;;6306867;28;20044;-79
2023/07/01 05:20:58;;;;;;;6.40;5.80;;;;;;;;;;6302581;28;20044;-79
2023/07/01 05:24:00;;;;;;;6.65;6.05;;;;;;;;;;6301079;28;20117;-79
2023/07/01 05:27:02;;;;;;;9.30;6.18;;;;;;;;;;6306264;28;20040;-79
2023/07/01 05:30:05;;;;;;;7.28;6.10;;;;;;;;;;6308118;28;20478;-79
2023/07/01 05:33:06;;;;;;;8.93;6.72;;;;;;;;;;6306639;28;20165;-80
2023/07/01 05:36:08;;;;;;;6.63;5.90;;;;;;;;;;6309129;28;20043;-80
2023/07/01 05:39:11;;;;;;;4.30;3.73;;;;;;;;;;6305480;28;20113;-79
2023/07/01 05:42:12;;;;;;;3.08;2.35;;;;;;;;;;6316256;28;20682;-79
2023/07/01 05:45:14;;;;;;;3.67;2.45;;;;;;;;;;6271118;28;20430;-80
2023/07/01 05:48:16;;;;;;;4.20;2.90;;;;;;;;;;6303139;28;20113;-80
2023/07/01 05:51:17;;;;;;;3.67;2.58;;;;;;;;;;6306377;28;20514;-79
2023/07/01 05:54:19;;;;;;;4.60;2.30;;;;;;;;;;6307321;28;20117;-79
2023/07/01 05:57:21;;;;;;;3.53;2.30;;;;;;;;;;6315934;28;20049;-80
2023/07/01 06:00:23;;;;;;;3.77;2.57;;;;;;;;;;6304360;28;20521;-80
2023/07/01 06:03:24;;;;;;;3.13;2.20;;;;;;;;;;6302066;28;20051;-80
2023/07/01 06:06:26;;;;;;;3.05;2.30;;;;;;;;;;6304375;28;20044;-79
2023/07/01 06:09:28;;;;;;;3.55;1.90;;;;;;;;;;6297983;28;20044;-79
2023/07/01 06:12:29;;;;;;;2.42;2.20;;;;;;;;;;6323914;28;20368;-78
2023/07/01 06:15:31;;;;;;;4.03;2.10;;;;;;;;;;6306189;28;20102;-78
2023/07/01 06:18:33;;;;;;;8.43;2.30;;;;;;;;;;6309495;28;20040;-79
2023/07/01 06:21:34;;;;;;;4.90;2.30;;;;;;;;;;6297852;28;20044;-78
2023/07/01 06:24:36;;;;;;;2.88;2.20;;;;;;;;;;6302201;28;20043;-80
2023/07/01 06:27:38;;;;;;;3.22;2.28;;;;;;;;;;6303587;28;20137;-80
2023/07/01 06:30:39;;;;;;;4.03;2.25;;;;;;;;;;6304606;28;20040;-80
2023/07/01 06:33:42;;;;;;;2.73;1.90;;;;;;;;;;6300690;28;20052;-82
2023/07/01 06:36:44;;;;;;;3.85;2.00;;;;;;;;;;6308121;28;20469;-82
2023/07/01 06:39:45;;;;;;;3.97;2.00;;;;;;;;;;6301758;28;20564;-82
2023/07/01 06:42:47;;;;;;;4.40;2.10;;;;;;;;;;6309136;28;20052;-82
2023/07/01 06:45:49;;;;;;;2.10;1.90;;;;;;;;;;6308496;28;20056;-83
2023/07/01 06:48:51;;;;;;;10.10;2.20;;;;;;;;;;6308832;28;20103;-82
2023/07/01 06:51:52;;;;;;;3.03;2.10;;;;;;;;;;6315032;28;20063;-81
2023/07/01 06:54:54;;;;;;;4.55;2.20;;;;;;;;;;6324052;28;20047;-83
2023/07/01 06:57:56;;;;;;;3.85;1.98;;;;;;;;;;6319707;28;20040;-83
2023/07/01 07:00:58;;;;;;;4.07;2.20;;;;;;;;;;6310130;27;20047;-83
2023/07/01 07:04:00;;;;;;;3.03;2.03;;;;;;;;;;6305474;28;20188;-82
2023/07/01 07:07:01;;;;;;;4.22;2.20;;;;;;;;;;6299835;28;20060;-81
2023/07/01 07:10:04;;;;;;;5.45;2.33;;;;;;;;;;6308393;28;20066;-81
2023/07/01 07:13:06;;;;;;;3.95;2.28;;;;;;;;;;6311873;28;20054;-82
2023/07/01 07:16:07;;;;;;;3.08;2.10;;;;;;;;;;6294045;28;20434;-82
2023/07/01 07:19:09;;;;;;;3.07;2.23;;;;;;;;;;6303702;28;20561;-81
2023/07/01 07:22:11;;;;;;;3.03;1.70;;;;;;;;;;6305053;28;20048;-84
2023/07/01 07:25:15;;;;;;;4.05;2.25;;;;;;;;;;6309597;28;20108;-84
2023/07/01 07:28:17;;;;;;;3.47;1.80;;;;;;;;;;6308023;28;20048;-82
2023/07/01 07:31:18;;;;;;;4.05;2.30;;;;;;;;;;6306439;28;20040;-81
2023/07/01 07:34:20;;;;;;;4.00;2.20;;;;;;;;;;6305868;28;20044;-83
2023/07/01 07:37:22;;;;;;;4.85;2.38;;;;;;;;;;6295121;28;20032;-83
2023/07/01 07:40:24;;;;;;;4.20;2.25;;;;;;;;;;6321354;28;20124;-82
2023/07/01 07:43:26;;;;;;;2.60;2.00;;;;;;;;;;6312902;28;20134;-82
2023/07/01 07:46:27;;;;;;;3.42;2.35;;;;;;;;;;6312286;28;20051;-80
2023/07/01 07:49:29;;;;;;;3.30;1.95;;;;;;;;;;6286855;28;20040;-81
2023/07/01 07:52:31;;;;;;;4.80;2.08;;;;;;;;;;6306737;28;20075;-82
2023/07/01 07:55:33;;;;;;;5.07;2.30;;;;;;;;;;6309415;28;20059;-83
2023/07/01 07:58:36;;;;;;;2.53;1.92;;;;;;;;;;6320963;28;20067;-83
2023/07/01 08:01:38;;;;;;;3.85;2.20;;;;;;;;;;6320439;28;20059;-82
2023/07/01 08:04:39;;;;;;;5.13;2.20;;;;;;;;;;6312678;28;20573;-82
2023/07/01 08:07:41;;;;;;;4.65;2.00;;;;;;;;;;6297437;28;20133;-82
2023/07/01 08:10:45;;;;;;;4.20;2.10;;;;;;;;;;6299552;28;20870;-84
2023/07/01 08:13:48;;;;;;;3.72;1.85;;;;;;;;;;6273267;28;20083;-82
2023/07/01 08:16:49;;;;;;;2.80;1.85;;;;;;;;;;6313347;28;20056;-83
2023/07/01 08:19:51;;;;;;;1.95;1.60;;;;;;;;;;6319077;28;20040;-83
2023/07/01 08:22:53;;;;;;;3.25;1.73;;;;;;;;;;6318493;28;20052;-83
2023/07/01 08:25:57;;;;;;;2.30;1.70;;;;;;;;;;6308788;28;20052;-83
2023/07/01 08:28:58;;;;;;;5.53;1.63;;;;;;;;;;6319397;28;20048;-83
2023/07/01 08:32:00;;;;;;;2.78;1.85;;;;;;;;;;6316059;28;20048;-82
2023/07/01 08:35:02;;;;;;;4.35;1.90;;;;;;;;;;6310101;28;20044;-80
2023/07/01 08:38:03;;;;;;;3.33;1.83;;;;;;;;;;6317225;28;20040;-80
2023/07/01 08:41:09;;;;;;;1.98;1.42;;;;;;;;;;6309653;28;20375;-79
2023/07/01 08:44:11;;;;;;;2.97;1.70;;;;;;;;;;6303557;28;20040;-81
2023/07/01 08:47:15;;;;;;;2.25;1.65;;;;;;;;;;6306143;28;20051;-82
2023/07/01 08:50:20;;;;;;;2.55;1.80;;;;;;;;;;6308356;28;20048;-84
2023/07/01 08:53:22;;;;;;;3.85;1.42;;;;;;;;;;6303904;28;20541;-81
2023/07/01 08:56:24;;;;;;;1.85;1.35;;;;;;;;;;6326009;28;20089;-83
2023/07/01 08:59:27;;;;;;;4.37;1.70;;;;;;;;;;6310817;28;20442;-85
2023/07/01 09:02:29;;;;;;;3.05;1.60;;;;;;;;;;6309044;28;20040;-80
2023/07/01 09:05:31;;;;;;;3.97;1.55;;;;;;;;;;6316035;28;20048;-80
2023/07/01 09:08:39;;;;;;;3.28;1.60;;;;;;;;;;6300330;28;20048;-80
2023/07/01 09:11:41;;;;;;;2.28;1.65;;;;;;;;;;6322866;28;20093;-79
2023/07/01 09:14:59;;;;;;;3.72;1.58;;;;;;;;;;6321016;28;20039;-80
2023/07/01 09:18:30;;;;;;;2.88;1.70;;;;;;;;;;6304996;28;20478;-80
2023/07/01 09:21:32;;;;;;;1.70;1.30;;;;;;;;;;6313830;28;20056;-80
2023/07/01 09:24:40;;;;;;;2.38;2.05;;;;;;;;;;6346595;27;20064;-77
2023/07/01 09:27:46;;;;;;;3.17;1.90;;;;;;;;;;6307131;28;20046;-79
2023/07/01 09:30:48;;;;;;;4.57;1.90;;;;;;;;;;6306399;28;20223;-80
2023/07/01 09:33:57;;;;;;;2.50;1.80;;;;;;;;;;6309958;28;20051;-79
2023/07/01 09:37:15;;;;;;;1.65;1.52;;;;;;;;;;6310296;28;20706;-79
2023/07/01 09:40:19;;;;;;;2.97;1.90;;;;;;;;;;6308619;28;20567;-80
2023/07/01 09:43:31;;;;;;;4.20;1.67;;;;;;;;;;6306643;28;20037;-79
2023/07/01 09:46:42;;;;;;;3.22;1.73;;;;;;;;;;6305724;27;20050;-80
2023/07/01 09:49:45;;;;;;;2.42;1.70;;;;;;;;;;6314277;28;20044;-80
2023/07/01 09:52:46;;;;;;;;;;;;;;;;;;6306307;28;20051;-80
2023/07/01 09:55:48;;;;;;;3.17;1.30;;;;;;;;;;6313064;28;19920;-81
2023/07/01 09:58:50;;;;;;;5.82;2.22;;;;;;;;;;6313338;28;20049;-81
2023/07/01 10:01:55;;;;;;;2.75;1.38;;;;;;;;;;6308096;28;20051;-81
2023/07/01 10:04:58;;;;;;;2.92;1.70;;;;;;;;;;6290423;28;20070;-82
2023/07/01 10:07:59;;;;;;;4.35;1.60;;;;;;;;;;6304018;28;20051;-81
2023/07/01 10:11:09;;;;;;;1.98;1.50;;;;;;;;;;6310341;28;20086;-81
2023/07/01 10:14:11;;;;;;;3.05;1.48;;;;;;;;;;6319756;28;20075;-80
2023/07/01 10:17:13;;;;;;;2.03;1.40;;;;;;;;;;6302630;28;20037;-82
2023/07/01 10:20:28;;;;;;;2.70;1.88;;;;;;;;;;6318821;28;20049;-81
2023/07/01 10:23:45;;;;;;;3.00;1.83;;;;;;;;;;6301752;28;20188;-79
2023/07/01 10:26:47;;;;;;;2.33;1.77;;;;;;;;;;6310304;28;20052;-79
2023/07/01 10:29:54;;;;;;;2.80;1.93;;;;;;;;;;6299620;28;20040;-78
2023/07/01 10:32:56;;;;;;;5.40;1.40;;;;;;;;;;6291981;28;20450;-76
2023/07/01 10:36:20;;;;;;;2.47;1.67;;;;;;;;;;6301413;28;20163;-78
2023/07/01 10:39:35;;;;;;;3.28;1.75;;;;;;;;;;6288522;28;20527;-80
2023/07/01 10:42:38;;;;;;;1.92;1.73;;;;;;;;;;6309571;28;20121;-78
2023/07/01 10:45:40;;;;;;;2.35;1.52;;;;;;;;;;6299283;28;20074;-77
2023/07/01 10:48:43;;;;;;;4.27;1.60;;;;;;;;;;6295265;27;20052;-77
2023/07/01 10:51:44;;;;;;;;;;;;;;;;;;6271429;28;20044;-80
2023/07/01 10:54:47;;;;;;;2.70;1.55;;;;;;;;;;6288642;28;20019;-85
2023/07/01 10:58:26;;;;;;;1.55;1.45;;;;;;;;;;6302515;28;20048;-82
2023/07/01 11:02:01;;;;;;;2.10;1.40;;;;;;;;;;6298796;28;20104;-81
2023/07/01 11:05:04;;;;;;;1.80;1.40;;;;;;;;;;6300996;28;20040;-81
2023/07/01 11:08:10;;;;;;;1.30;1.20;;;;;;;;;;6300582;28;20085;-81
2023/07/01 11:11:17;;;;;;;1.40;1.30;;;;;;;;;;6306448;28;20047;-81
2023/07/01 11:14:19;;;;;;;1.73;1.40;;;;;;;;;;6318869;28;20058;-79
2023/07/01 11:17:22;;;;;;;1.45;1.30;;;;;;;;;;6302024;28;20054;-82
2023/07/01 11:20:24;;;;;;;1.63;1.42;;;;;;;;;;6305009;28;20040;-82
2023/07/01 11:23:25;;;;;;;2.72;1.48;;;;;;;;;;6311490;28;20056;-81
2023/07/01 11:26:30;;;;;;;1.70;1.58;;;;;;;;;;6312176;28;20052;-81
2023/07/01 11:29:32;;;;;;;1.73;1.50;;;;;;;;;;6308849;27;20051;-83
2023/07/01 11:32:34;;;;;;;1.50;1.40;;;;;;;;;;6311682;28;20047;-83
2023/07/01 11:35:49;;;;;;;2.20;1.20;;;;;;;;;;6318301;27;20038;-83
2023/07/01 11:38:51;;;;;;;1.73;1.55;;;;;;;;;;6311328;28;20049;-80
2023/07/01 11:41:57;;;;;;;2.22;1.65;;;;;;;;;;6311154;28;20060;-80
2023/07/01 11:45:04;;;;;;;1.25;1.15;;;;;;;;;;6310950;28;20047;-83
2023/07/01 11:48:06;;;;;;;1.30;1.20;;;;;;;;;;6311401;28;20044;-80
2023/07/01 11:51:07;;;;;;;1.88;1.35;;;;;;;;;;6314543;28;20040;-82
2023/07/01 11:54:09;;;;;;;1.55;1.45;;;;;;;;;;6315128;28;20055;-83
2023/07/01 11:57:18;;;;;;;2.25;1.90;;;;;;;;;;6316386;28;20055;-81
2023/07/01 12:00:29;;;;;;;1.65;1.48;;;;;;;;;;6311921;28;20520;-81
2023/07/01 12:03:33;;;;;;;2.50;1.92;;;;;;;;;;6299528;28;20040;-82
2023/07/01 12:06:35;;;;;;;2.65;1.80;;;;;;;;;;6315477;28;20417;-82
2023/07/01 12:09:41;;;;;;;3.22;2.70;;;;;;;;;;6321297;28;20130;-81
2023/07/01 12:12:43;;;;;;;2.80;2.20;;;;;;;;;;6315119;28;20051;-82
2023/07/01 12:15:51;;;;;;;3.53;2.30;;;;;;;;;;6314248;28;20044;-81
2023/07/01 12:19:01;;;;;;;3.83;2.13;;;;;;;;;;6332972;28;20052;-82
2023/07/01 12:22:05;;;;;;;3.03;2.40;;;;;;;;;;6319418;28;20047;-81
2023/07/01 12:25:07;;;;;;;2.23;1.93;;;;;;;;;;6314792;28;20040;-82
2023/07/01 12:28:09;;;;;;;2.60;2.20;;;;;;;;;;6316085;28;20039;-82
2023/07/01 12:31:12;;;;;;;2.13;1.80;;;;;;;;;;6319012;28;20044;-82
2023/07/01 12:34:15;;;;;;;3.63;2.35;;;;;;;;;;6321169;28;20522;-82
2023/07/01 12:37:17;;;;;;;3.17;2.53;;;;;;;;;;6325684;28;20044;-82
2023/07/01 12:40:19;;;;;;;2.22;1.90;;;;;;;;;;6332747;28;20043;-82
2023/07/01 12:43:25;;;;;;;3.67;2.65;;;;;;;;;;6321433;28;20052;-82
2023/07/01 12:46:27;;;;;;;2.25;2.00;;;;;;;;;;6308743;28;20059;-81
2023/07/01 12:49:28;;;;;;;3.55;2.10;;;;;;;;;;6312570;28;20044;-82
2023/07/01 12:52:34;;;;;;;4.63;2.67;;;;;;;;;;6318966;28;20047;-81
2023/07/01 12:55:36;;;;;;;2.10;1.90;;;;;;;;;;6324696;28;20040;-82
2023/07/01 12:58:38;;;;;;;3.05;2.22;;;;;;;;;;6323462;28;20055;-83
2023/07/01 13:01:43;;;;;;;2.50;1.98;;;;;;;;;;6295606;28;20056;-82
2023/07/01 13:04:44;;;;;;;3.13;2.03;;;;;;;;;;6316269;28;20062;-82
2023/07/01 13:07:48;;;;;;;5.72;2.63;;;;;;;;;;6301246;28;20066;-83
2023/07/01 13:10:50;;;;;;;3.33;2.10;;;;;;;;;;6309554;28;20055;-82
2023/07/01 13:13:52;;;;;;;2.80;2.30;;;;;;;;;;6308450;28;20070;-81
2023/07/01 13:16:54;;;;;;;3.58;2.47;;;;;;;;;;6269115;28;20045;-83
2023/07/01 13:19:56;;;;;;;2.38;2.13;;;;;;;;;;6288523;28;20048;-83
2023/07/01 13:22:58;;;;;;;4.30;2.63;;;;;;;;;;6291166;28;20043;-83
2023/07/01 13:26:00;;;;;;;2.50;2.15;;;;;;;;;;6308914;28;20047;-81
2023/07/01 13:29:02;;;;;;;3.13;2.40;;;;;;;;;;6284687;28;20048;-81
2023/07/01 13:32:05;;;;;;;1.95;1.80;;;;;;;;;;6295894;28;20060;-81
2023/07/01 13:35:07;;;;;;;3.23;2.63;;;;;;;;;;6311733;28;20040;-82
2023/07/01 13:38:09;;;;;;;2.97;2.15;;;;;;;;;;6293671;28;20138;-81
2023/07/01 13:41:14;;;;;;;3.05;2.20;;;;;;;;;;6314211;28;20052;-80
2023/07/01 13:44:22;;;;;;;2.47;1.83;;;;;;;;;;6313202;28;20044;-82
2023/07/01 13:47:46;;;;;;;1.60;1.50;;;;;;;;;;6301803;28;20071;-83
2023/07/01 13:50:53;;;;;;;1.48;1.30;;;;;;;;;;6324952;28;20051;-81
2023/07/01 13:53:55;;;;;;;1.67;1.52;;;;;;;;;;6307507;28;20052;-81
2023/07/01 13:56:59;;;;;;;1.70;1.60;;;;;;;;;;6308033;28;20048;-81
2023/07/01 14:00:08;;;;;;;3.60;2.50;;;;;;;;;;6306870;28;20048;-81
2023/07/01 14:03:13;;;;;;;1.92;1.60;;;;;;;;;;6301361;28;20074;-81
2023/07/01 14:06:19;;;;;;;1.70;1.60;;;;;;;;;;6302164;28;20044;-81
2023/07/01 14:09:29;;;;;;;1.95;1.70;;;;;;;;;;6282569;28;20071;-82
2023/07/01 14:12:31;;;;;;;1.95;1.75;;;;;;;;;;6261116;28;20041;-82
2023/07/01 14:15:49;;;;;;;3.33;2.50;;;;;;;;;;6281767;28;20102;-81
2023/07/01 14:18:53;;;;;;;2.65;2.20;;;;;;;;;;6292828;28;20153;-82
2023/07/01 14:21:59;;;;;;;4.57;2.65;;;;;;;;;;6310151;28;20043;-82
2023/07/01 14:25:00;;;;;;;4.28;2.60;;;;;;;;;;6306164;28;20052;-82
2023/07/01 14:28:08;;;;;;;2.70;2.33;;;;;;;;;;6305354;28;20040;-79
2023/07/01 14:31:11;;;;;;;4.32;2.90;;;;;;;;;;6305636;28;20074;-79
2023/07/01 14:34:13;;;;;;;;;;;;;;;;;;6307450;28;20045;-80
2023/07/01 14:37:15;;;;;;;3.55;2.90;;;;;;;;;;6305237;28;19928;-80
2023/07/01 14:40:16;;;;;;;3.47;3.17;;;;;;;;;;6308332;28;20040;-80
2023/07/01 14:43:18;;;;;;;3.63;3.10;;;;;;;;;;6309837;28;20043;-81
2023/07/01 14:46:20;;;;;;;4.25;3.40;;;;;;;;;;6308546;28;20041;-79
2023/07/01 14:49:22;;;;;;;4.30;2.90;;;;;;;;;;6293479;28;20074;-80
2023/07/01 14:52:24;;;;;;;3.13;2.83;;;;;;;;;;6307702;28;20078;-81
2023/07/01 14:55:26;;;;;;;3.45;2.60;;;;;;;;;;6291234;28;20108;-80
2023/07/01 14:58:28;;;;;;;3.88;3.00;;;;;;;;;;6338952;27;20636;-79
2023/07/01 15:01:29;;;;;;;3.50;2.97;;;;;;;;;;6302677;28;20055;-80
2023/07/01 15:04:31;;;;;;;3.00;2.70;;;;;;;;;;6304964;28;20051;-80
2023/07/01 15:07:35;;;;;;;4.00;3.40;;;;;;;;;;6307059;28;20042;-80
2023/07/01 15:10:38;;;;;;;3.58;3.22;;;;;;;;;;6315385;28;20131;-80
2023/07/01 15:13:42;;;;;;;3.63;3.10;;;;;;;;;;6315804;28;20439;-80
2023/07/01 15:16:45;;;;;;;3.90;3.00;;;;;;;;;;6312996;28;20052;-80
2023/07/01 15:19:47;;;;;;;3.47;3.08;;;;;;;;;;6295344;28;20056;-79
2023/07/01 15:22:48;;;;;;;5.03;3.10;;;;;;;;;;6302083;27;20058;-81
2023/07/01 15:25:51;;;;;;;3.42;3.05;;;;;;;;;;6307931;28;20039;-80
2023/07/01 15:28:53;;;;;;;3.42;2.65;;;;;;;;;;6316425;28;20047;-80
2023/07/01 15:31:54;;;;;;;3.40;3.10;;;;;;;;;;6304546;28;20047;-80
2023/07/01 15:34:57;;;;;;;3.60;3.30;;;;;;;;;;6307343;28;20052;-80
2023/07/01 15:38:00;;;;;;;3.30;3.00;;;;;;;;;;6311480;28;20109;-80
2023/07/01 15:41:01;;;;;;;3.28;2.95;;;;;;;;;;6309839;28;20055;-80
2023/07/01 15:44:03;;;;;;;4.57;3.50;;;;;;;;;;6311348;28;20070;-81
2023/07/01 15:47:05;;;;;;;3.75;3.35;;;;;;;;;;6305832;28;20524;-80
2023/07/01 15:50:07;;;;;;;2.78;2.58;;;;;;;;;;6301200;28;20107;-81
2023/07/01 15:53:09;;;;;;;2.58;2.38;;;;;;;;;;6309076;28;20047;-81
2023/07/01 15:56:11;;;;;;;3.88;2.92;;;;;;;;;;6308587;28;20047;-80
2023/07/01 15:59:13;;;;;;;3.45;2.88;;;;;;;;;;6319148;28;20055;-79
2023/07/01 16:02:14;;;;;;;3.90;2.78;;;;;;;;;;6321481;28;20093;-78
2023/07/01 16:05:22;;;;;;;3.22;2.50;;;;;;;;;;6308199;28;20051;-80
2023/07/01 16:08:24;;;;;;;2.30;2.10;;;;;;;;;;6303066;28;20415;-79
2023/07/01 16:11:31;;;;;;;2.55;2.22;;;;;;;;;;6294009;28;20063;-80
2023/07/01 16:14:33;;;;;;;1.90;1.80;;;;;;;;;;6321234;28;20055;-80
2023/07/01 16:17:39;;;;;;;2.73;2.53;;;;;;;;;;6307240;28;20052;-82
2023/07/01 16:21:03;;;;;;;3.60;2.83;;;;;;;;;;6327642;28;20036;-81
2023/07/01 16:24:10;;;;;;;;;;;;;;;;;;6311149;28;20108;-81
2023/07/01 16:27:15;;;;;;;3.55;2.97;;;;;;;;;;6315794;28;19920;-81
2023/07/01 16:30:18;;;;;;;3.40;2.90;;;;;;;;;;6313389;28;20044;-81
2023/07/01 16:33:21;;;;;;;2.63;2.42;;;;;;;;;;6307981;28;20044;-82
2023/07/01 16:36:27;;;;;;;2.60;2.40;;;;;;;;;;6318525;28;20052;-84
2023/07/01 16:39:28;;;;;;;3.50;2.20;;;;;;;;;;6313766;28;20036;-83
2023/07/01 16:42:36;;;;;;;3.35;2.38;;;;;;;;;;6303605;28;20117;-83
2023/07/01 16:45:38;;;;;;;2.50;2.30;;;;;;;;;;6313819;28;20047;-83
2023/07/01 16:48:50;;;;;;;3.33;2.80;;;;;;;;;;6323519;27;20067;-83
2023/07/01 16:51:52;;;;;;;3.20;2.57;;;;;;;;;;6286835;28;20059;-83
2023/07/01 16:54:55;;;;;;;3.22;2.85;;;;;;;;;;6291678;28;20053;-82
2023/07/01 16:57:57;;;;;;;3.10;2.38;;;;;;;;;;6288443;28;20041;-82
2023/07/01 17:01:02;;;;;;;2.78;2.10;;;;;;;;;;6283599;28;20037;-83
2023/07/01 17:04:04;;;;;;;2.55;2.05;;;;;;;;;;6289965;28;20047;-83
2023/07/01 17:07:13;;;;;;;2.57;2.20;;;;;;;;;;6308410;28;20044;-83
2023/07/01 17:10:35;;;;;;;2.55;2.22;;;;;;;;;;6308879;28;20036;-83
2023/07/01 17:13:39;;;;;;;4.72;2.53;;;;;;;;;;6305226;28;20048;-82
2023/07/01 17:16:40;;;;;;;2.72;2.47;;;;;;;;;;6296646;28;20549;-81
2023/07/01 17:19:43;;;;;;;2.20;2.00;;;;;;;;;;6308195;28;20134;-83
2023/07/01 17:22:44;;;;;;;2.20;2.00;;;;;;;;;;6299914;28;20045;-83
2023/07/01 17:25:46;;;;;;;3.00;1.88;;;;;;;;;;6297821;28;20082;-82
2023/07/01 17:28:48;;;;;;;2.85;2.30;;;;;;;;;;6313047;28;20068;-82
2023/07/01 17:31:50;;;;;;;2.47;1.85;;;;;;;;;;6306615;28;20114;-83
2023/07/01 17:35:00;;;;;;;2.50;2.30;;;;;;;;;;6295215;28;20135;-82
2023/07/01 17:38:02;;;;;;;2.70;2.25;;;;;;;;;;6307900;28;20394;-80
2023/07/01 17:41:04;;;;;;;2.70;2.50;;;;;;;;;;6312142;28;20072;-82
2023/07/01 17:44:05;;;;;;;2.78;2.20;;;;;;;;;;6292526;28;20055;-81
2023/07/01 17:47:07;;;;;;;3.05;2.40;;;;;;;;;;6304667;28;20069;-81
2023/07/01 17:50:11;;;;;;;2.45;2.25;;;;;;;;;;6297650;28;20052;-82
2023/07/01 17:53:22;;;;;;;2.30;2.10;;;;;;;;;;6314977;28;20048;-82
2023/07/01 17:56:24;;;;;;;2.20;2.00;;;;;;;;;;6317123;27;20040;-82
2023/07/01 17:59:26;;;;;;;2.97;2.50;;;;;;;;;;6291564;28;20097;-82
2023/07/01 18:02:27;;;;;;;2.40;2.20;;;;;;;;;;6312617;28;20048;-82
2023/07/01 18:05:29;;;;;;;3.40;2.40;;;;;;;;;;6309634;28;20485;-82
2023/07/01 18:08:34;;;;;;;2.30;2.10;;;;;;;;;;6316704;28;20257;-82
2023/07/01 18:11:36;;;;;;;3.25;2.13;;;;;;;;;;6308826;28;20040;-81
2023/07/01 18:14:38;;;;;;;2.33;2.13;;;;;;;;;;6309259;28;20054;-82
2023/07/01 18:17:40;;;;;;;3.55;2.30;;;;;;;;;;6312225;28;20043;-82
2023/07/01 18:20:44;;;;;;;2.60;2.40;;;;;;;;;;6333409;27;20052;-83
2023/07/01 18:23:56;;;;;;;2.55;2.35;;;;;;;;;;6283751;28;20045;-82